Time;durP1;ratioP1;P1;durP2;ratioP2;P2;SDS_P1;SDS_P2;PMS_P1;PMS_P2;Temp;Humidity;BMP_temperature;BMP_pressure;BME280_temperature;BME280_humidity;BME280_pressure;Samples;Min_cycle;Max_cycle;Signal;HPM_P1;HPM_P2
2023/06/30 00:02:01;;;;;;;4.70;3.00;;;;;;;15.68;100.00;100014.36;105679;1253;59537;-41
2023/06/30 00:04:30;;;;;;;5.00;2.90;;;;;;;15.63;100.00;100016.48;105772;1253;70863;-43
2023/06/30 00:06:59;;;;;;;3.30;2.60;;;;;;;15.60;100.00;100017.55;105723;1258;64445;-43
2023/06/30 00:09:28;;;;;;;8.80;2.80;;;;;;;15.56;100.00;100017.70;105773;1253;71457;-42
2023/06/30 00:11:55;;;;;;;5.80;2.80;;;;;;;15.52;100.00;100015.42;105713;1259;60605;-44
2023/06/30 00:14:24;;;;;;;3.70;3.00;;;;;;;15.50;100.00;100014.83;105830;1253;60007;-43
2023/06/30 00:16:52;;;;;;;5.70;3.00;;;;;;;15.48;100.00;100014.41;105835;1257;73046;-43
2023/06/30 00:19:23;;;;;;;5.50;3.20;;;;;;;15.47;100.00;100009.20;105739;1254;64036;-42
2023/06/30 00:21:52;;;;;;;3.10;2.80;;;;;;;15.48;100.00;100011.27;105855;1253;72491;-42
2023/06/30 00:24:20;;;;;;;4.70;2.60;;;;;;;15.51;100.00;100010.23;105894;1257;61578;-43
2023/06/30 00:26:48;;;;;;;4.60;3.20;;;;;;;15.56;100.00;100013.05;105726;1257;59661;-44
2023/06/30 00:29:16;;;;;;;3.00;2.60;;;;;;;15.59;100.00;100009.92;105680;1253;72071;-44
2023/06/30 00:31:44;;;;;;;3.50;3.00;;;;;;;15.62;100.00;100014.45;105670;1255;64076;-44
2023/06/30 00:34:12;;;;;;;5.50;3.20;;;;;;;15.60;100.00;100016.27;105699;1257;71401;-44
2023/06/30 00:36:39;;;;;;;3.10;2.90;;;;;;;15.61;100.00;100012.95;105648;1256;60470;-44
2023/06/30 00:39:07;;;;;;;3.80;3.20;;;;;;;15.62;100.00;100013.79;105829;1254;60002;-43
2023/06/30 00:41:35;;;;;;;11.70;3.00;;;;;;;15.64;100.00;100014.40;105691;1253;71818;-44
2023/06/30 00:44:03;;;;;;;7.40;3.00;;;;;;;15.67;100.00;100017.21;105656;1258;65782;-45
2023/06/30 00:46:31;;;;;;;2.90;2.60;;;;;;;15.70;100.00;100019.50;105699;1254;71421;-44
2023/06/30 00:48:59;;;;;;;10.10;3.00;;;;;;;15.71;100.00;100015.46;105641;1254;60397;-44
2023/06/30 00:51:27;;;;;;;3.70;3.40;;;;;;;15.69;100.00;100018.52;105734;1253;60220;-43
2023/06/30 00:53:56;;;;;;;4.20;2.90;;;;;;;15.66;100.00;100018.46;105711;1254;71869;-42
2023/06/30 00:56:25;;;;;;;5.70;3.10;;;;;;;15.61;100.00;100019.88;105653;1253;65178;-45
2023/06/30 00:58:53;;;;;;;3.10;2.80;;;;;;;15.60;100.00;100023.78;105651;1257;73174;-45
2023/06/30 01:01:26;;;;;;;9.60;2.90;;;;;;;15.56;100.00;100014.91;105701;1253;60694;-42
2023/06/30 01:03:59;;;;;;;7.70;3.20;;;;;;;15.50;100.00;100010.63;105726;1257;59532;-45
2023/06/30 01:06:32;;;;;;;4.10;3.20;;;;;;;15.44;100.00;100013.73;105711;1255;72999;-42
2023/06/30 01:09:13;;;;;;;6.50;2.90;;;;;;;15.37;100.00;100008.98;105754;1257;63985;-45
2023/06/30 01:11:41;;;;;;;3.70;3.10;;;;;;;15.30;100.00;100013.66;105679;1254;71338;-41
2023/06/30 01:14:09;;;;;;;12.20;3.40;;;;;;;15.23;100.00;100012.71;105703;1254;60888;-42
2023/06/30 01:16:37;;;;;;;3.90;2.90;;;;;;;15.19;100.00;100008.04;105695;1253;60009;-44
2023/06/30 01:19:11;;;;;;;6.70;3.40;;;;;;;15.16;100.00;100004.19;105728;1254;73006;-44
2023/06/30 01:21:40;;;;;;;3.40;3.20;;;;;;;15.14;100.00;100001.16;105718;1253;64272;-41
2023/06/30 01:24:08;;;;;;;4.90;3.20;;;;;;;15.11;100.00;100007.17;105745;1257;71366;-43
2023/06/30 01:26:35;;;;;;;5.30;2.80;;;;;;;15.09;100.00;100009.19;105708;1259;60548;-42
2023/06/30 01:29:04;;;;;;;3.60;3.30;;;;;;;15.05;100.00;100003.30;105672;1255;59535;-41
2023/06/30 01:31:32;;;;;;;5.40;3.50;;;;;;;14.98;100.00;99996.29;105697;1254;73054;-42
2023/06/30 01:34:00;;;;;;;4.00;3.40;;;;;;;14.93;100.00;99994.93;105716;1253;64103;-43
2023/06/30 01:36:28;;;;;;;6.70;3.60;;;;;;;14.88;100.00;99990.29;105727;1253;71440;-41
2023/06/30 01:38:58;;;;;;;8.00;3.80;;;;;;;14.87;100.00;99995.05;105850;1253;60710;-44
2023/06/30 01:41:26;;;;;;;4.00;3.40;;;;;;;14.86;100.00;99992.63;105695;1257;59618;-41
2023/06/30 01:43:54;;;;;;;6.40;3.30;;;;;;;14.85;100.00;99993.92;105692;1253;72144;-44
2023/06/30 01:46:22;;;;;;;4.40;3.30;;;;;;;14.86;100.00;99992.30;105719;1253;64033;-42
2023/06/30 01:48:49;;;;;;;3.60;3.40;;;;;;;14.88;100.00;99989.60;105675;1253;72591;-43
2023/06/30 01:51:18;;;;;;;4.10;3.20;;;;;;;14.89;100.00;99986.42;105636;1252;60884;-43
2023/06/30 01:53:45;;;;;;;4.70;3.60;;;;;;;14.90;100.00;99986.56;105698;1256;60422;-42
2023/06/30 01:56:13;;;;;;;7.60;3.70;;;;;;;14.90;100.00;99985.67;105668;1253;72650;-43
2023/06/30 01:58:41;;;;;;;4.30;3.80;;;;;;;14.92;100.00;99986.46;105654;1253;65392;-44
2023/06/30 02:01:08;;;;;;;4.10;3.40;;;;;;;14.93;100.00;99987.98;105675;1256;71433;-42
2023/06/30 02:03:36;;;;;;;5.40;3.50;;;;;;;14.95;100.00;99995.04;105671;1253;60407;-45
2023/06/30 02:06:04;;;;;;;6.30;3.30;;;;;;;14.98;100.00;99988.84;105861;1256;60339;-43
2023/06/30 02:08:32;;;;;;;3.70;3.40;;;;;;;15.01;100.00;99988.49;105675;1253;72742;-43
2023/06/30 02:10:59;;;;;;;4.40;3.70;;;;;;;15.02;100.00;99993.87;105713;1253;64317;-44
2023/06/30 02:13:27;;;;;;;6.00;3.30;;;;;;;14.99;100.00;99993.98;105634;1253;72638;-42
2023/06/30 02:15:54;;;;;;;7.10;3.50;;;;;;;14.96;100.00;99994.99;105678;1259;61625;-42
2023/06/30 02:18:24;;;;;;;8.00;3.60;;;;;;;14.93;100.00;99992.34;105855;1257;60355;-42
2023/06/30 02:20:52;;;;;;;3.90;3.60;;;;;;;14.91;100.00;99995.73;105701;1253;73847;-43
2023/06/30 02:23:20;;;;;;;5.50;3.50;;;;;;;14.88;100.00;99995.85;105694;1252;64253;-44
2023/06/30 02:25:48;;;;;;;4.80;3.80;;;;;;;14.86;100.00;99994.56;105685;1253;71532;-41
2023/06/30 02:28:15;;;;;;;5.50;3.40;;;;;;;14.83;100.00;99994.19;105712;1253;61762;-41
2023/06/30 02:30:44;;;;;;;5.70;3.90;;;;;;;14.81;100.00;99992.88;105714;1253;60346;-41
2023/06/30 02:33:11;;;;;;;4.90;3.70;;;;;;;14.79;100.00;99995.37;105841;1253;72922;-44
2023/06/30 02:35:41;;;;;;;5.50;3.50;;;;;;;14.78;100.00;99992.13;105722;1253;64271;-44
2023/06/30 02:38:10;;;;;;;4.60;3.60;;;;;;;14.77;100.00;99993.89;105715;1253;72620;-42
2023/06/30 02:40:38;;;;;;;4.00;3.60;;;;;;;14.79;100.00;99993.13;105814;1258;60537;-42
2023/06/30 02:43:06;;;;;;;3.90;3.60;;;;;;;14.78;100.00;99986.36;105729;1254;60349;-41
2023/06/30 02:45:34;;;;;;;6.30;3.50;;;;;;;14.80;100.00;99978.65;105674;1258;73808;-42
2023/06/30 02:48:02;;;;;;;10.20;3.90;;;;;;;14.82;100.00;99974.58;105651;1256;64110;-41
2023/06/30 02:50:31;;;;;;;3.50;3.20;;;;;;;14.82;100.00;99975.45;105714;1255;72632;-41
2023/06/30 02:52:59;;;;;;;6.60;3.90;;;;;;;14.84;100.00;99981.42;105705;1257;60464;-41
2023/06/30 02:55:27;;;;;;;5.80;3.50;;;;;;;14.87;100.00;99980.10;105747;1255;60468;-41
2023/06/30 02:57:56;;;;;;;8.30;4.20;;;;;;;14.92;100.00;99979.35;105698;1253;72641;-43
2023/06/30 03:00:24;;;;;;;4.30;3.90;;;;;;;14.96;100.00;99978.30;105737;1253;64014;-41
2023/06/30 03:02:53;;;;;;;5.40;3.70;;;;;;;15.01;100.00;99976.87;105747;1253;72237;-42
2023/06/30 03:05:21;;;;;;;9.40;3.60;;;;;;;15.05;100.00;99972.70;105857;1257;60531;-45
2023/06/30 03:07:50;;;;;;;4.40;3.50;;;;;;;15.10;100.00;99977.52;105688;1257;60388;-45
2023/06/30 03:10:18;;;;;;;4.00;3.70;;;;;;;15.16;100.00;99982.48;105870;1253;72908;-43
2023/06/30 03:12:46;;;;;;;9.20;4.00;;;;;;;15.22;100.00;99981.84;105657;1255;63949;-42
2023/06/30 03:15:14;;;;;;;9.00;3.90;;;;;;;15.29;100.00;99986.59;105866;1253;70745;-41
2023/06/30 03:17:42;;;;;;;5.50;3.90;;;;;;;15.33;100.00;99986.73;105681;1254;61069;-43
2023/06/30 03:20:12;;;;;;;7.90;4.20;;;;;;;15.38;100.00;99986.16;105639;1253;60320;-43
2023/06/30 03:22:40;;;;;;;5.80;4.70;;;;;;;15.44;100.00;99988.51;105682;1257;73824;-45
2023/06/30 03:25:09;;;;;;;6.40;3.50;;;;;;;15.49;100.00;99983.05;105855;1257;65246;-42
2023/06/30 03:27:37;;;;;;;4.50;4.00;;;;;;;15.54;100.00;99992.42;105674;1253;72626;-42
2023/06/30 03:30:05;;;;;;;4.90;4.10;;;;;;;15.58;100.00;100001.08;105661;1258;60657;-40
2023/06/30 03:32:35;;;;;;;7.70;4.20;;;;;;;15.64;100.00;100008.47;105731;1257;60381;-43
2023/06/30 03:35:04;;;;;;;5.30;3.90;;;;;;;15.70;100.00;100019.31;105881;1253;72595;-41
2023/06/30 03:37:33;;;;;;;5.40;3.40;;;;;;;15.79;100.00;100028.98;105691;1259;65355;-42
2023/06/30 03:40:04;;;;;;;4.30;4.00;;;;;;;15.91;100.00;100033.84;105844;1256;71507;-42
2023/06/30 03:42:32;;;;;;;7.60;3.80;;;;;;;16.09;100.00;100028.63;105697;1258;61626;-42
2023/06/30 03:45:01;;;;;;;5.50;4.50;;;;;;;16.33;100.00;100033.42;105872;1257;60358;-41
2023/06/30 03:47:31;;;;;;;4.60;4.00;;;;;;;16.50;100.00;100043.05;105867;1253;72699;-43
2023/06/30 03:49:59;;;;;;;7.70;4.30;;;;;;;16.61;100.00;100052.95;105727;1255;64070;-41
2023/06/30 03:54:44;;;;;;;8.20;3.80;;;;;;;16.68;100.00;100096.15;102733;1291;600292;-43
2023/06/30 03:57:13;;;;;;;4.30;3.90;;;;;;;16.68;100.00;100078.20;104777;1268;59990;-42
2023/06/30 03:59:41;;;;;;;4.90;3.50;;;;;;;16.71;100.00;100077.02;104852;1266;59313;-41
2023/06/30 04:02:09;;;;;;;8.10;3.80;;;;;;;16.68;100.00;100072.44;105398;1262;71291;-41
2023/06/30 04:04:37;;;;;;;4.60;3.70;;;;;;;16.64;100.00;100067.73;105535;1262;63940;-44
2023/06/30 04:07:05;;;;;;;4.00;3.70;;;;;;;16.60;100.00;100054.40;105734;1255;71104;-42
2023/06/30 04:09:33;;;;;;;5.50;3.50;;;;;;;16.53;100.00;100041.67;105738;1256;244773;-42
2023/06/30 04:12:01;;;;;;;12.00;4.10;;;;;;;16.50;100.00;100025.41;105920;1256;59295;-40
2023/06/30 04:14:29;;;;;;;5.70;4.20;;;;;;;16.52;100.00;100028.98;105900;1251;70989;-42
2023/06/30 04:16:56;;;;;;;5.10;3.90;;;;;;;16.57;100.00;100037.31;105959;1251;64020;-43
2023/06/30 04:19:25;;;;;;;4.40;4.00;;;;;;;16.59;100.00;100040.15;105923;1256;71377;-42
2023/06/30 04:21:53;;;;;;;7.20;4.30;;;;;;;16.65;100.00;100041.39;105873;1256;60506;-44
2023/06/30 04:24:21;;;;;;;6.10;3.80;;;;;;;16.71;100.00;100032.76;105975;1256;59606;-42
2023/06/30 04:26:49;;;;;;;14.90;4.90;;;;;;;16.77;100.00;100028.63;105907;1256;73124;-40
2023/06/30 04:29:16;;;;;;;5.40;4.60;;;;;;;16.85;100.00;100026.66;106019;1251;64012;-43
2023/06/30 04:31:44;;;;;;;4.70;4.20;;;;;;;16.98;100.00;100023.54;105890;1256;71387;-41
2023/06/30 04:34:12;;;;;;;4.00;3.60;;;;;;;17.18;100.00;100027.10;105912;1254;60409;-42
2023/06/30 04:36:39;;;;;;;10.70;4.70;;;;;;;17.38;100.00;100032.14;105797;1253;60047;-43
2023/06/30 04:39:07;;;;;;;5.20;4.60;;;;;;;17.46;100.00;100020.71;105844;1256;71155;-42
2023/06/30 04:41:35;;;;;;;5.20;4.70;;;;;;;17.47;100.00;100003.40;105915;1254;63941;-44
2023/06/30 04:44:03;;;;;;;7.80;4.60;;;;;;;17.50;100.00;99989.11;105706;1253;71787;-42
2023/06/30 04:46:30;;;;;;;5.70;4.20;;;;;;;17.49;100.00;99972.73;105842;1253;61649;-42
2023/06/30 04:49:00;;;;;;;6.30;5.70;;;;;;;17.53;100.00;99965.73;105692;1258;59596;-42
2023/06/30 04:51:28;;;;;;;6.70;5.70;;;;;;;17.51;100.00;99936.52;105749;1253;71749;-44
2023/06/30 04:53:56;;;;;;;9.00;5.00;;;;;;;17.49;100.00;99924.42;105685;1254;65648;-42
2023/06/30 04:56:25;;;;;;;5.60;5.10;;;;;;;17.50;100.00;99923.64;105894;1254;71971;-44
2023/06/30 04:58:53;;;;;;;7.10;5.70;;;;;;;17.50;100.00;99918.77;105852;1254;61605;-44
2023/06/30 05:01:21;;;;;;;6.70;5.60;;;;;;;17.48;100.00;99909.50;105682;1253;59526;-42
2023/06/30 05:03:48;;;;;;;7.60;6.80;;;;;;;17.52;100.00;99906.31;105685;1252;72982;-42
2023/06/30 05:06:16;;;;;;;7.80;6.60;;;;;;;17.53;100.00;99876.59;105709;1253;63934;-44
2023/06/30 05:08:44;;;;;;;8.80;5.90;;;;;;;17.59;100.00;99857.59;105643;1257;71398;-43
2023/06/30 05:11:11;;;;;;;10.20;5.60;;;;;;;17.76;100.00;99847.56;105724;1253;61608;-44
2023/06/30 05:13:39;;;;;;;12.30;6.00;;;;;;;18.07;100.00;99854.88;105852;1255;59529;-43
2023/06/30 05:16:07;;;;;;;6.30;5.70;;;;;;;18.21;100.00;99775.11;105657;1257;73003;-43
2023/06/30 05:18:35;;;;;;;7.90;5.60;;;;;;;18.20;100.00;99733.79;105719;1257;63924;-42
2023/06/30 05:21:02;;;;;;;7.50;5.60;;;;;;;18.24;100.00;99726.41;105833;1253;71676;-43
2023/06/30 05:23:30;;;;;;;14.10;5.90;;;;;;;18.24;100.00;99705.46;105668;1253;59617;-42
2023/06/30 05:25:58;;;;;;;7.60;5.70;;;;;;;18.22;100.00;99693.89;105669;1257;59536;-42
2023/06/30 05:28:26;;;;;;;6.50;5.70;;;;;;;18.25;100.00;99687.40;105680;1257;72108;-44
2023/06/30 05:30:54;;;;;;;7.40;5.50;;;;;;;18.27;100.00;99671.56;105859;1253;63931;-44
2023/06/30 05:33:21;;;;;;;12.20;5.80;;;;;;;18.31;100.00;99659.27;105624;1253;71737;-42
2023/06/30 05:35:49;;;;;;;11.80;6.10;;;;;;;18.27;100.00;99631.04;105721;1254;60168;-49
2023/06/30 05:38:17;;;;;;;5.70;5.30;;;;;;;18.19;100.00;99600.63;105665;1257;59528;-45
2023/06/30 05:40:45;;;;;;;7.30;5.40;;;;;;;18.14;100.00;99608.67;105877;1253;73086;-41
2023/06/30 05:43:12;;;;;;;8.70;5.90;;;;;;;18.10;100.00;99615.55;105839;1254;65146;-44
2023/06/30 05:45:40;;;;;;;8.30;6.00;;;;;;;18.09;100.00;99617.50;105657;1253;71765;-44
2023/06/30 05:48:08;;;;;;;14.60;6.30;;;;;;;18.17;100.00;99620.88;105683;1257;59635;-41
2023/06/30 05:50:36;;;;;;;5.80;5.30;;;;;;;18.25;100.00;99624.91;105854;1257;59621;-44
2023/06/30 05:53:03;;;;;;;15.30;6.40;;;;;;;18.33;100.00;99610.77;105672;1254;73032;-43
2023/06/30 05:55:31;;;;;;;7.50;6.50;;;;;;;18.47;100.00;99593.48;105843;1252;64389;-44
2023/06/30 05:57:58;;;;;;;9.10;7.00;;;;;;;18.58;100.00;99568.26;105650;1254;71319;-43
2023/06/30 06:00:27;;;;;;;18.20;7.10;;;;;;;18.68;100.00;99548.96;105659;1255;60887;-43
2023/06/30 06:02:55;;;;;;;10.50;7.00;;;;;;;18.78;100.00;99532.86;105860;1257;59583;-42
2023/06/30 06:05:23;;;;;;;11.70;6.80;;;;;;;18.86;100.00;99500.77;105891;1257;72459;-45
2023/06/30 06:07:52;;;;;;;32.80;9.00;;;;;;;18.86;100.00;99483.60;105853;1254;63903;-41
2023/06/30 06:10:20;;;;;;;28.90;10.00;;;;;;;18.86;100.00;99466.51;105629;1257;70736;-46
2023/06/30 06:12:50;;;;;;;42.20;10.20;;;;;;;18.78;100.00;99463.35;105725;1254;59698;-42
2023/06/30 06:15:18;;;;;;;33.10;9.30;;;;;;;18.80;100.00;99467.42;105731;1254;59628;-42
2023/06/30 06:17:46;;;;;;;28.30;9.70;;;;;;;18.98;100.00;99474.25;105678;1254;71824;-41
2023/06/30 06:20:14;;;;;;;19.60;8.50;;;;;;;19.10;100.00;99456.46;105706;1258;65111;-44
2023/06/30 06:22:42;;;;;;;17.00;8.00;;;;;;;19.25;100.00;99444.06;105700;1257;72673;-43
2023/06/30 06:25:10;;;;;;;12.10;8.20;;;;;;;19.34;100.00;99438.36;105688;1257;59807;-42
2023/06/30 06:27:38;;;;;;;14.10;7.20;;;;;;;19.48;100.00;99437.52;105725;1257;59542;-44
2023/06/30 06:30:06;;;;;;;9.40;6.40;;;;;;;19.65;100.00;99427.40;105663;1253;72071;-43
2023/06/30 06:32:34;;;;;;;10.00;6.70;;;;;;;19.79;100.00;99421.67;105719;1255;65230;-41
2023/06/30 06:35:02;;;;;;;9.30;6.00;;;;;;;19.99;100.00;99421.14;105733;1257;70965;-43
2023/06/30 06:37:30;;;;;;;7.00;6.00;;;;;;;20.09;100.00;99422.34;105755;1253;59667;-43
2023/06/30 06:39:58;;;;;;;8.40;5.70;;;;;;;20.08;100.00;99422.52;105693;1253;59787;-44
2023/06/30 06:42:25;;;;;;;7.10;5.20;;;;;;;20.06;100.00;99425.48;105768;1253;71779;-41
2023/06/30 06:44:53;;;;;;;5.50;4.90;;;;;;;20.15;100.00;99426.41;105717;1253;64608;-43
2023/06/30 06:47:59;;;;;;;9.50;5.30;;;;;;;20.12;100.00;99434.53;105688;1256;71401;-43
2023/06/30 06:50:27;;;;;;;5.80;5.20;;;;;;;20.08;100.00;99434.07;105852;1257;59762;-43
2023/06/30 06:52:55;;;;;;;5.70;4.60;;;;;;;20.12;100.00;99436.11;105725;1257;59632;-42
2023/06/30 06:55:23;;;;;;;10.60;4.70;;;;;;;20.21;100.00;99437.00;105653;1254;73092;-42
2023/06/30 06:57:51;;;;;;;12.40;4.70;;;;;;;20.34;100.00;99431.83;105836;1254;63932;-44
2023/06/30 07:00:20;;;;;;;11.90;4.50;;;;;;;20.42;100.00;99433.70;105884;1253;71409;-42
2023/06/30 07:02:48;;;;;;;7.90;4.80;;;;;;;20.32;100.00;99443.73;105840;1253;59653;-42
2023/06/30 07:05:16;;;;;;;6.70;4.90;;;;;;;20.30;100.00;99447.52;105701;1257;60103;-42
2023/06/30 07:07:43;;;;;;;9.50;4.50;;;;;;;20.36;100.00;99439.58;105669;1253;73025;-43
2023/06/30 07:10:11;;;;;;;7.80;4.20;;;;;;;20.50;100.00;99429.42;105694;1255;63932;-45
2023/06/30 07:12:39;;;;;;;11.10;4.80;;;;;;;20.56;100.00;99427.94;105712;1253;71437;-45
2023/06/30 07:15:07;;;;;;;19.60;5.30;;;;;;;20.50;100.00;99436.39;105900;1254;59757;-45
2023/06/30 07:17:35;;;;;;;5.10;4.40;;;;;;;20.46;100.00;99438.46;105693;1253;59578;-45
2023/06/30 07:20:03;;;;;;;6.20;4.70;;;;;;;20.56;100.00;99426.69;105712;1253;71913;-42
2023/06/30 07:22:33;;;;;;;12.50;4.70;;;;;;;20.69;100.00;99425.51;105734;1253;64474;-43
2023/06/30 07:25:02;;;;;;;4.40;4.00;;;;;;;20.86;100.00;99431.27;105879;1253;72643;-44
2023/06/30 07:27:30;;;;;;;19.00;4.80;;;;;;;20.91;100.00;99445.39;105719;1257;60667;-42
2023/06/30 07:29:58;;;;;;;7.00;4.30;;;;;;;20.92;100.00;99464.11;105691;1257;59621;-44
2023/06/30 07:32:25;;;;;;;4.80;3.90;;;;;;;20.99;100.00;99462.35;105674;1253;72059;-44
2023/06/30 07:34:53;;;;;;;4.50;4.20;;;;;;;21.15;100.00;99462.16;105706;1253;64469;-44
2023/06/30 07:37:22;;;;;;;11.30;4.10;;;;;;;21.19;100.00;99492.35;105706;1254;71177;-42
2023/06/30 07:39:49;;;;;;;25.30;4.20;;;;;;;21.17;100.00;99504.09;105655;1253;60844;-45
2023/06/30 07:42:17;;;;;;;33.60;5.10;;;;;;;21.28;100.00;99499.23;105836;1257;59560;-43
2023/06/30 07:44:46;;;;;;;28.20;5.20;;;;;;;21.45;100.00;99508.60;105714;1253;71753;-42
2023/06/30 07:47:14;;;;;;;8.30;4.20;;;;;;;21.59;100.00;99513.30;105737;1253;64462;-43
2023/06/30 07:49:41;;;;;;;8.30;4.20;;;;;;;21.82;100.00;99506.61;105665;1253;75368;-43
2023/06/30 07:52:09;;;;;;;5.70;3.80;;;;;;;21.94;100.00;99519.65;105684;1253;60023;-42
2023/06/30 07:54:37;;;;;;;4.10;3.50;;;;;;;22.02;100.00;99529.40;105701;1257;59926;-44
2023/06/30 07:57:06;;;;;;;9.20;4.10;;;;;;;22.01;100.00;99560.38;105708;1257;70836;-43
2023/06/30 07:59:33;;;;;;;6.60;3.90;;;;;;;22.07;100.00;99554.33;105588;1253;64008;-46
2023/06/30 08:02:01;;;;;;;4.60;4.00;;;;;;;22.15;100.00;99559.61;105727;1257;71352;-44
2023/06/30 08:04:29;;;;;;;5.00;3.90;;;;;;;22.22;100.00;99552.54;105744;1253;60545;-43
2023/06/30 08:06:58;;;;;;;10.70;3.60;;;;;;;22.35;100.00;99548.80;105800;1257;60534;-44
2023/06/30 08:09:26;;;;;;;11.90;4.20;;;;;;;22.51;100.00;99558.64;105733;1253;72562;-44
2023/06/30 08:11:55;;;;;;;9.30;4.50;;;;;;;22.67;100.00;99564.19;105714;1253;63981;-43
2023/06/30 08:14:22;;;;;;;15.00;4.50;;;;;;;22.80;100.00;99565.24;105739;1253;71628;-42
2023/06/30 08:16:50;;;;;;;8.00;4.30;;;;;;;22.79;100.00;99571.98;105876;1258;60504;-43
2023/06/30 08:19:18;;;;;;;6.30;4.00;;;;;;;22.68;100.00;99604.55;105903;1252;60494;-44
2023/06/30 08:22:06;;;;;;;9.80;4.60;;;;;;;22.81;100.00;99604.73;105663;1255;72630;-44
2023/06/30 08:24:34;;;;;;;5.00;4.30;;;;;;;22.97;100.00;99604.11;105710;1253;64903;-43
2023/06/30 08:27:04;;;;;;;28.30;5.10;;;;;;;23.11;100.00;99593.20;105706;1253;72597;-43
2023/06/30 08:29:32;;;;;;;17.40;5.00;;;;;;;23.07;100.00;99607.50;105720;1257;60544;-42
2023/06/30 08:32:00;;;;;;;9.00;4.40;;;;;;;23.09;100.00;99611.48;105837;1254;60403;-44
2023/06/30 08:34:28;;;;;;;48.80;6.00;;;;;;;23.16;100.00;99589.63;105739;1253;72559;-41
2023/06/30 08:36:56;;;;;;;57.40;6.90;;;;;;;23.08;100.00;99609.88;105653;1257;63932;-43
2023/06/30 08:39:27;;;;;;;15.80;5.10;;;;;;;23.00;100.00;99612.52;105721;1256;70392;-44
2023/06/30 08:41:55;;;;;;;63.00;7.00;;;;;;;22.96;100.00;99607.30;105688;1257;60511;-44
2023/06/30 08:44:24;;;;;;;30.60;5.00;;;;;;;22.92;100.00;99605.70;105777;1258;60452;-43
2023/06/30 08:46:53;;;;;;;17.80;5.50;;;;;;;22.90;100.00;99608.16;105745;1253;72669;-44
2023/06/30 08:49:22;;;;;;;24.50;5.40;;;;;;;22.94;100.00;99610.11;105665;1257;65256;-47
2023/06/30 08:51:56;;;;;;;5.40;4.50;;;;;;;23.05;100.00;99607.44;105708;1257;71399;-44
2023/06/30 08:54:24;;;;;;;15.70;4.20;;;;;;;23.15;100.00;99601.54;105879;1253;60467;-44
2023/06/30 08:56:53;;;;;;;8.80;4.70;;;;;;;23.25;100.00;99598.60;105658;1253;60344;-43
2023/06/30 08:59:21;;;;;;;7.70;4.30;;;;;;;23.21;100.00;99606.15;105689;1253;72646;-42
2023/06/30 09:01:49;;;;;;;15.20;4.50;;;;;;;23.04;100.00;99612.44;105841;1253;64269;-42
2023/06/30 09:04:17;;;;;;;6.40;3.90;;;;;;;22.83;100.00;99618.82;105653;1253;72709;-44
2023/06/30 09:06:47;;;;;;;15.40;4.70;;;;;;;22.78;100.00;99621.49;105702;1254;60532;-43
2023/06/30 09:09:28;;;;;;;6.00;4.30;;;;;;;22.92;100.00;99607.88;105737;1253;60345;-43
2023/06/30 09:11:56;;;;;;;11.40;5.00;;;;;;;23.09;100.00;99603.80;105722;1257;71936;-42
2023/06/30 09:14:24;;;;;;;4.70;4.10;;;;;;;23.27;100.00;99592.61;105667;1255;64004;-42
2023/06/30 09:16:52;;;;;;;12.60;4.50;;;;;;;23.47;100.00;99594.65;105672;1253;71453;-43
2023/06/30 09:19:20;;;;;;;21.10;5.10;;;;;;;23.55;100.00;99582.00;105692;1257;60973;-43
2023/06/30 09:21:48;;;;;;;7.90;4.50;;;;;;;23.46;100.00;99595.92;105768;1253;60959;-42
2023/06/30 09:24:16;;;;;;;5.10;4.20;;;;;;;23.36;100.00;99600.00;105709;1254;73796;-45
2023/06/30 09:26:44;;;;;;;7.00;4.20;;;;;;;23.32;100.00;99621.45;105715;1253;64085;-43
2023/06/30 09:29:12;;;;;;;19.30;4.50;;;;;;;23.55;100.00;99605.40;105688;1253;71054;-42
2023/06/30 09:31:40;;;;;;;9.20;4.20;;;;;;;23.67;100.00;99615.77;105693;1257;60451;-41
2023/06/30 09:34:12;;;;;;;7.80;4.30;;;;;;;23.80;100.00;99594.60;105706;1258;60397;-43
2023/06/30 09:36:50;;;;;;;6.10;4.00;;;;;;;23.83;100.00;99607.74;105870;1257;72522;-44
2023/06/30 09:39:18;;;;;;;10.30;4.40;;;;;;;23.95;100.00;99607.00;105723;1257;63990;-43
2023/06/30 09:41:47;;;;;;;16.60;5.00;;;;;;;23.93;99.83;99585.85;105725;1254;72737;-44
2023/06/30 09:44:17;;;;;;;24.90;4.90;;;;;;;23.79;100.00;99611.41;105718;1253;60520;-43
2023/06/30 09:46:52;;;;;;;10.90;3.70;;;;;;;23.79;97.49;99591.30;105722;1257;60429;-43
2023/06/30 09:49:28;;;;;;;16.10;4.30;;;;;;;23.96;91.79;99587.23;105711;1257;74290;-43
2023/06/30 09:51:57;;;;;;;11.40;4.50;;;;;;;24.00;84.34;99566.64;105734;1257;63927;-45
2023/06/30 09:54:25;;;;;;;15.90;4.10;;;;;;;24.01;94.18;99610.90;105687;1253;71406;-44
2023/06/30 09:57:11;;;;;;;12.70;4.40;;;;;;;24.22;92.13;99600.32;105679;1253;60456;-43
2023/06/30 09:59:39;;;;;;;14.90;4.80;;;;;;;24.45;98.77;99617.77;105782;1253;60486;-42
2023/06/30 10:02:10;;;;;;;7.50;4.60;;;;;;;24.74;87.17;99578.20;105685;1253;72613;-42
2023/06/30 10:04:37;;;;;;;55.60;6.00;;;;;;;24.83;77.31;99531.47;105745;1253;64092;-43
2023/06/30 10:07:05;;;;;;;5.00;4.00;;;;;;;24.68;71.92;99524.61;105720;1253;72735;-46
2023/06/30 10:09:34;;;;;;;33.30;5.50;;;;;;;24.47;76.01;99584.81;105723;1253;61192;-44
2023/06/30 10:12:03;;;;;;;9.70;4.40;;;;;;;24.46;76.00;99587.72;105713;1257;60641;-42
2023/06/30 10:14:31;;;;;;;22.60;4.20;;;;;;;24.58;83.34;99615.73;105673;1253;73869;-44
2023/06/30 10:17:00;;;;;;;39.80;5.30;;;;;;;24.79;75.37;99556.91;105701;1257;64051;-47
2023/06/30 10:19:28;;;;;;;24.50;5.40;;;;;;;24.68;74.25;99567.57;105690;1257;73102;-46
2023/06/30 10:21:56;;;;;;;11.00;5.00;;;;;;;24.71;79.04;99605.29;105679;1257;60550;-43
2023/06/30 10:24:27;;;;;;;8.80;5.10;;;;;;;24.86;70.49;99521.20;105737;1258;60367;-46
2023/06/30 10:26:55;;;;;;;6.70;4.90;;;;;;;24.86;71.73;99558.46;105654;1258;73800;-41
2023/06/30 10:29:23;;;;;;;11.20;4.50;;;;;;;24.95;69.32;99531.15;105720;1253;64476;-44
2023/06/30 10:31:51;;;;;;;15.60;4.90;;;;;;;25.01;67.35;99511.48;105692;1253;72707;-46
2023/06/30 10:34:19;;;;;;;11.00;4.90;;;;;;;25.03;67.34;99517.89;105662;1254;60422;-46
2023/06/30 10:36:47;;;;;;;7.50;4.70;;;;;;;25.07;67.57;99534.09;105751;1258;60600;-45
2023/06/30 10:39:15;;;;;;;11.40;4.80;;;;;;;25.23;67.30;99535.58;105690;1253;72655;-46
2023/06/30 10:41:47;;;;;;;8.90;4.80;;;;;;;25.28;65.46;99503.84;105869;1253;65313;-45
2023/06/30 10:44:19;;;;;;;16.60;5.10;;;;;;;25.34;64.52;99490.60;105731;1253;71461;-44
2023/06/30 10:46:55;;;;;;;7.10;5.00;;;;;;;25.36;64.65;99514.24;105726;1256;60514;-43
2023/06/30 10:49:34;;;;;;;10.60;4.30;;;;;;;25.30;61.65;99454.52;105681;1253;60328;-43
2023/06/30 10:52:04;;;;;;;15.00;5.10;;;;;;;25.26;61.49;99463.77;105700;1253;72621;-45
2023/06/30 10:54:41;;;;;;;9.90;5.50;;;;;;;25.16;60.93;99462.04;105716;1253;65709;-45
2023/06/30 10:57:39;;;;;;;13.70;5.00;;;;;;;25.05;62.96;99529.70;105738;1257;71436;-45
2023/06/30 11:00:11;;;;;;;12.80;4.40;;;;;;;25.14;63.85;99541.73;105644;1257;60534;-42
2023/06/30 11:02:47;;;;;;;8.90;4.70;;;;;;;25.30;63.90;99539.79;105764;1253;60543;-44
2023/06/30 11:05:25;;;;;;;7.70;4.50;;;;;;;25.57;62.59;99500.39;105709;1257;73867;-42
2023/06/30 11:07:54;;;;;;;14.30;5.30;;;;;;;25.75;61.24;99470.40;105709;1257;64278;-42
2023/06/30 11:10:31;;;;;;;47.70;6.00;;;;;;;25.72;60.90;99480.06;105728;1257;71156;-41
2023/06/30 11:13:00;;;;;;;23.10;5.20;;;;;;;25.56;60.30;99471.92;105694;1257;60499;-43
2023/06/30 11:15:38;;;;;;;12.00;4.20;;;;;;;25.43;61.32;99508.24;105765;1256;60336;-45
2023/06/30 11:18:10;;;;;;;38.10;6.00;;;;;;;25.50;61.15;99499.27;105890;1253;72637;-44
2023/06/30 11:20:38;;;;;;;38.20;5.20;;;;;;;25.66;60.91;99498.86;105679;1253;63879;-44
2023/06/30 11:23:08;;;;;;;54.10;5.70;;;;;;;25.86;61.12;99498.01;105667;1253;71629;-43
2023/06/30 11:25:39;;;;;;;38.00;4.90;;;;;;;25.98;60.75;99489.20;105713;1259;60520;-44